createdAt,value
2023-11-25T00:00:24.009Z,0.75
2023-11-25T00:02:50.767Z,0.82
2023-11-25T00:05:17.682Z,0.82
2023-11-25T00:07:44.280Z,1.20
2023-11-25T00:10:11.088Z,0.57
2023-11-25T00:12:37.785Z,0.52
2023-11-25T00:15:05.913Z,0.75
2023-11-25T00:17:33.876Z,0.75
2023-11-25T00:20:01.539Z,0.60
2023-11-25T00:22:28.163Z,1.13
2023-11-25T00:24:55.725Z,0.93
2023-11-25T00:27:22.250Z,1.05
2023-11-25T00:29:48.876Z,0.38
2023-11-25T00:32:16.691Z,0.90
2023-11-25T00:34:44.740Z,0.60
2023-11-25T00:37:11.350Z,0.65
2023-11-25T00:39:37.854Z,0.82
2023-11-25T00:42:05.417Z,1.00
2023-11-25T00:44:32.380Z,0.85
2023-11-25T00:46:59.015Z,0.73
2023-11-25T00:49:26.312Z,0.70
2023-11-25T00:51:52.858Z,0.63
2023-11-25T00:54:19.369Z,1.00
2023-11-25T00:56:45.872Z,1.65
2023-11-25T00:59:13.095Z,1.00
2023-11-25T01:01:39.761Z,1.70
2023-11-25T01:04:10.064Z,1.33
2023-11-25T01:06:36.664Z,1.45
2023-11-25T01:09:03.189Z,1.60
2023-11-25T01:11:30.196Z,1.48
2023-11-25T01:13:56.707Z,1.00
2023-11-25T01:16:23.492Z,0.95
2023-11-25T01:18:50.041Z,1.48
2023-11-25T01:21:16.607Z,0.80
2023-11-25T01:23:43.457Z,1.20
2023-11-25T01:26:10.036Z,1.30
2023-11-25T01:28:38.520Z,1.50
2023-11-25T01:31:06.254Z,1.27
2023-11-25T01:33:33.059Z,1.42
2023-11-25T01:35:59.649Z,1.60
2023-11-25T01:38:26.221Z,1.50
2023-11-25T01:40:54.079Z,1.42
2023-11-25T01:43:24.685Z,1.83
2023-11-25T01:45:53.319Z,1.38
2023-11-25T01:48:20.593Z,1.73
2023-11-25T01:50:48.784Z,1.30
2023-11-25T01:53:18.484Z,1.13
2023-11-25T01:55:45.517Z,1.92
2023-11-25T01:58:16.631Z,1.55
2023-11-25T02:00:44.605Z,1.13
2023-11-25T02:03:13.614Z,1.17
2023-11-25T02:05:40.511Z,1.02
2023-11-25T02:08:10.475Z,1.40
2023-11-25T02:10:37.317Z,1.30
2023-11-25T02:13:05.913Z,1.33
2023-11-25T02:15:33.389Z,1.17
2023-11-25T02:17:59.983Z,1.10
2023-11-25T02:20:42.029Z,1.45
2023-11-25T02:23:25.052Z,1.38
2023-11-25T02:25:53.772Z,1.30
2023-11-25T02:28:21.601Z,1.42
2023-11-25T02:30:48.789Z,1.20
2023-11-25T02:33:16.241Z,1.05
2023-11-25T02:35:48.949Z,0.90
2023-11-25T02:38:16.418Z,1.08
2023-11-25T02:40:46.047Z,1.08
2023-11-25T02:43:13.020Z,1.10
2023-11-25T02:45:40.678Z,1.23
2023-11-25T02:48:07.748Z,1.13
2023-11-25T02:50:34.502Z,1.25
2023-11-25T02:53:01.022Z,1.60
2023-11-25T02:55:27.697Z,1.35
2023-11-25T02:57:54.284Z,1.25
2023-11-25T03:00:26.817Z,1.60
2023-11-25T03:02:55.280Z,1.38
2023-11-25T03:05:23.501Z,1.15
2023-11-25T03:07:51.627Z,1.73
2023-11-25T03:10:18.341Z,1.10
2023-11-25T03:12:48.689Z,1.35
2023-11-25T03:15:16.761Z,1.33
2023-11-25T03:17:43.379Z,1.27
2023-11-25T03:20:10.401Z,1.80
2023-11-25T03:22:37.035Z,1.33
2023-11-25T03:25:06.116Z,1.27
2023-11-25T03:27:32.766Z,1.60
2023-11-25T03:29:59.752Z,1.27
2023-11-25T03:32:29.671Z,1.30
2023-11-25T03:35:01.526Z,1.42
2023-11-25T03:37:28.504Z,1.58
2023-11-25T03:39:55.153Z,0.82
2023-11-25T03:42:21.798Z,1.95
2023-11-25T03:44:48.618Z,1.55
2023-11-25T03:47:15.339Z,2.00
2023-11-25T03:49:42.029Z,1.92
2023-11-25T03:52:08.654Z,2.15
2023-11-25T03:54:35.208Z,1.27
2023-11-25T03:57:02.029Z,1.83
2023-11-25T03:59:28.582Z,1.63
2023-11-25T04:01:55.218Z,1.10
2023-11-25T04:04:21.842Z,0.98
2023-11-25T04:06:48.385Z,1.70
2023-11-25T04:09:14.923Z,1.35
2023-11-25T04:11:44.581Z,0.98
2023-11-25T04:14:11.120Z,1.30
2023-11-25T04:16:37.765Z,1.42
2023-11-25T04:19:04.599Z,1.45
2023-11-25T04:21:31.432Z,1.95
2023-11-25T04:23:57.929Z,1.90
2023-11-25T04:26:26.028Z,1.75
2023-11-25T04:28:53.787Z,1.33
2023-11-25T04:31:21.749Z,1.75
2023-11-25T04:33:48.550Z,1.65
2023-11-25T04:36:19.253Z,1.58
2023-11-25T04:38:47.508Z,1.40
2023-11-25T04:41:14.347Z,1.00
2023-11-25T04:43:41.110Z,1.95
2023-11-25T04:46:10.966Z,1.48
2023-11-25T04:48:37.768Z,1.20
2023-11-25T04:51:04.548Z,1.10
2023-11-25T04:53:31.087Z,1.30
2023-11-25T04:55:57.716Z,1.58
2023-11-25T04:58:24.337Z,1.52
2023-11-25T05:00:55.282Z,1.65
2023-11-25T05:03:23.113Z,1.48
2023-11-25T05:05:49.685Z,1.58
2023-11-25T05:08:16.209Z,1.70
2023-11-25T05:10:42.934Z,1.60
2023-11-25T05:13:09.543Z,1.30
2023-11-25T05:15:36.803Z,1.50
2023-11-25T05:18:03.419Z,1.38
2023-11-25T05:20:30.079Z,1.13
2023-11-25T05:22:56.646Z,1.63
2023-11-25T05:25:23.528Z,1.40
2023-11-25T05:27:51.284Z,1.17
2023-11-25T05:30:18.460Z,1.02
2023-11-25T05:32:45.582Z,1.20
2023-11-25T05:35:17.148Z,1.23
2023-11-25T05:37:45.725Z,1.08
2023-11-25T05:40:13.295Z,1.33
2023-11-25T05:42:43.376Z,1.08
2023-11-25T05:45:10.557Z,1.50
2023-11-25T05:47:37.261Z,1.52
2023-11-25T05:50:04.916Z,1.40
2023-11-25T05:52:31.724Z,1.27
2023-11-25T05:54:58.284Z,1.27
2023-11-25T05:57:24.966Z,1.13
2023-11-25T05:59:51.497Z,1.30
2023-11-25T06:02:18.113Z,1.58
2023-11-25T06:04:44.952Z,1.80
2023-11-25T06:07:11.718Z,2.15
2023-11-25T06:09:38.289Z,2.10
2023-11-25T06:12:05.088Z,2.45
2023-11-25T06:14:34.395Z,2.60
2023-11-25T06:19:30.972Z,2.05
2023-11-25T06:21:59.506Z,2.10
2023-11-25T06:24:26.484Z,2.58
2023-11-25T06:26:54.706Z,2.80
2023-11-25T06:29:21.305Z,2.10
2023-11-25T06:31:48.011Z,1.58
2023-11-25T06:34:14.670Z,1.40
2023-11-25T06:36:41.278Z,1.45
2023-11-25T06:39:09.137Z,1.50
2023-11-25T06:41:44.216Z,1.20
2023-11-25T06:44:11.384Z,1.60
2023-11-25T06:46:37.945Z,1.13
2023-11-25T06:49:05.148Z,1.58
2023-11-25T06:51:31.780Z,1.27
2023-11-25T06:53:58.322Z,1.15
2023-11-25T06:56:24.837Z,1.88
2023-11-25T06:58:53.447Z,1.23
2023-11-25T07:01:20.721Z,1.67
2023-11-25T07:03:47.467Z,1.30
2023-11-25T07:06:14.868Z,1.83
2023-11-25T07:08:44.783Z,1.33
2023-11-25T07:11:14.241Z,1.65
2023-11-25T07:13:41.719Z,1.80
2023-11-25T07:16:08.874Z,2.00
2023-11-25T07:18:36.445Z,1.60
2023-11-25T07:21:03.197Z,1.50
2023-11-25T07:23:29.814Z,1.38
2023-11-25T07:26:00.488Z,1.67
2023-11-25T07:28:27.092Z,1.65
2023-11-25T07:30:53.704Z,1.90
2023-11-25T07:33:20.248Z,1.48
2023-11-25T07:35:46.894Z,1.60
2023-11-25T07:38:13.450Z,1.40
2023-11-25T07:40:40.382Z,1.33
2023-11-25T07:43:07.034Z,0.65
2023-11-25T07:45:33.582Z,1.98
2023-11-25T07:48:00.231Z,1.40
2023-11-25T07:50:27.211Z,0.98
2023-11-25T07:52:54.353Z,1.00
2023-11-25T07:55:21.061Z,0.85
2023-11-25T07:57:49.126Z,1.50
2023-11-25T08:00:17.720Z,1.40
2023-11-25T08:02:51.039Z,1.00
2023-11-25T08:05:24.817Z,1.38
2023-11-25T08:07:56.402Z,1.25
2023-11-25T08:10:26.064Z,1.05
2023-11-25T08:12:52.824Z,0.88
2023-11-25T08:15:19.431Z,1.02
2023-11-25T08:17:46.166Z,1.38
2023-11-25T08:20:13.635Z,1.17
2023-11-25T08:22:40.750Z,2.72
2023-11-25T08:25:11.288Z,2.17
2023-11-25T08:27:41.526Z,1.65
2023-11-25T08:30:10.133Z,2.00
2023-11-25T08:32:43.748Z,1.48
2023-11-25T08:35:11.329Z,0.63
2023-11-25T08:37:40.147Z,1.77
2023-11-25T08:40:08.725Z,1.30
2023-11-25T08:42:36.343Z,1.10
2023-11-25T08:45:03.668Z,1.00
2023-11-25T08:47:30.899Z,1.00
2023-11-25T08:49:58.006Z,0.88
2023-11-25T08:52:25.867Z,1.67
2023-11-25T08:54:53.714Z,3.47
2023-11-25T08:57:21.492Z,4.25
2023-11-25T08:59:49.205Z,4.30
2023-11-25T09:02:23.224Z,4.38
2023-11-25T09:04:59.705Z,2.50
2023-11-25T09:07:35.650Z,3.25
2023-11-25T09:10:06.321Z,2.28
2023-11-25T09:12:33.184Z,1.70
2023-11-25T09:15:00.877Z,1.40
2023-11-25T09:17:27.821Z,1.17
2023-11-25T09:19:54.558Z,2.13
2023-11-25T09:22:22.009Z,3.60
2023-11-25T09:24:48.604Z,3.60
2023-11-25T09:27:15.145Z,2.95
2023-11-25T09:29:43.945Z,7.18
2023-11-25T09:32:11.305Z,4.93
2023-11-25T09:34:39.912Z,5.15
2023-11-25T09:37:08.663Z,3.65
2023-11-25T09:39:36.079Z,4.97
2023-11-25T09:42:02.794Z,5.82
2023-11-25T09:44:30.364Z,6.95
2023-11-25T09:46:57.526Z,5.40
2023-11-25T09:49:24.165Z,3.80
2023-11-25T09:51:52.534Z,2.38
2023-11-25T09:54:23.221Z,1.80
2023-11-25T09:56:51.344Z,1.48
2023-11-25T09:59:19.893Z,1.83
2023-11-25T10:01:47.473Z,2.97
2023-11-25T10:04:17.037Z,2.45
2023-11-25T10:06:43.876Z,3.65
2023-11-25T10:09:13.515Z,3.50
2023-11-25T10:11:44.074Z,5.10
2023-11-25T10:14:14.803Z,4.65
2023-11-25T10:16:45.766Z,5.22
2023-11-25T10:19:22.316Z,4.40
2023-11-25T10:21:50.335Z,4.00
2023-11-25T10:24:18.606Z,4.22
2023-11-25T10:26:45.460Z,2.83
2023-11-25T10:29:14.462Z,5.35
2023-11-25T10:31:43.083Z,9.10
2023-11-25T10:34:14.704Z,9.73
2023-11-25T10:36:41.624Z,8.25
2023-11-25T10:39:11.636Z,7.40
2023-11-25T10:41:38.644Z,5.57
2023-11-25T10:44:08.644Z,3.30
2023-11-25T10:46:39.889Z,3.42
2023-11-25T10:49:09.492Z,2.20
2023-11-25T10:51:39.898Z,2.42
2023-11-25T10:54:11.014Z,2.45
2023-11-25T10:56:38.278Z,2.70
2023-11-25T10:59:07.032Z,2.08
2023-11-25T11:01:40.714Z,2.50
2023-11-25T11:04:25.976Z,2.45
2023-11-25T11:06:59.839Z,2.08
2023-11-25T11:09:30.501Z,1.92
2023-11-25T11:12:07.129Z,2.10
2023-11-25T11:14:48.025Z,1.90
2023-11-25T11:17:26.892Z,3.42
2023-11-25T11:19:56.759Z,1.50
2023-11-25T11:22:24.391Z,1.70
2023-11-25T11:25:08.878Z,1.05
2023-11-25T11:27:56.495Z,3.72
2023-11-25T11:32:58.377Z,1.75
2023-11-25T11:35:41.137Z,2.25
2023-11-25T11:38:30.319Z,2.17
2023-11-25T11:40:59.845Z,1.20
2023-11-25T11:43:29.140Z,1.52
2023-11-25T11:45:56.019Z,0.98
2023-11-25T11:48:27.119Z,0.82
2023-11-25T11:50:55.966Z,0.90
2023-11-25T11:53:24.804Z,0.98
2023-11-25T11:55:52.905Z,1.10
2023-11-25T11:58:21.735Z,1.63
2023-11-25T12:01:01.125Z,1.85
2023-11-25T12:03:29.366Z,1.50
2023-11-25T12:05:56.043Z,1.88
2023-11-25T12:08:26.494Z,1.98
2023-11-25T12:10:53.534Z,1.52
2023-11-25T12:13:30.066Z,3.22
2023-11-25T12:16:01.381Z,6.30
2023-11-25T12:18:29.747Z,2.58
2023-11-25T12:20:57.213Z,4.78
2023-11-25T12:23:36.797Z,3.95
2023-11-25T12:26:11.822Z,3.33
2023-11-25T12:28:44.216Z,5.38
2023-11-25T12:31:11.204Z,2.92
2023-11-25T12:33:37.802Z,2.80
2023-11-25T12:36:06.326Z,2.60
2023-11-25T12:38:34.669Z,3.78
2023-11-25T12:41:02.396Z,2.17
2023-11-25T12:43:29.299Z,1.88
2023-11-25T12:45:55.880Z,1.80
2023-11-25T12:48:33.473Z,1.80
2023-11-25T12:51:05.564Z,1.40
2023-11-25T12:53:32.730Z,1.15
2023-11-25T12:56:00.396Z,1.25
2023-11-25T12:58:27.520Z,1.60
2023-11-25T13:00:58.944Z,1.70
2023-11-25T13:03:27.428Z,1.45
2023-11-25T13:06:10.770Z,1.52
2023-11-25T13:08:46.414Z,1.20
2023-11-25T13:11:16.349Z,1.20
2023-11-25T13:13:43.108Z,0.90
2023-11-25T13:16:12.073Z,1.20
2023-11-25T13:18:38.668Z,1.13
2023-11-25T13:21:08.652Z,1.00
2023-11-25T13:23:35.648Z,1.17
2023-11-25T13:26:03.245Z,1.00
2023-11-25T13:28:30.307Z,0.70
2023-11-25T13:30:56.970Z,0.43
2023-11-25T13:33:23.735Z,1.27
2023-11-25T13:35:50.318Z,1.65
2023-11-25T13:38:17.712Z,1.10
2023-11-25T13:40:44.714Z,0.88
2023-11-25T13:43:21.532Z,1.20
2023-11-25T13:45:48.272Z,0.80
2023-11-25T13:48:17.737Z,0.90
2023-11-25T13:51:10.882Z,1.10
2023-11-25T13:53:37.913Z,1.38
2023-11-25T13:56:04.692Z,0.57
2023-11-25T13:58:31.754Z,1.23
2023-11-25T14:00:58.497Z,0.68
2023-11-25T14:03:25.148Z,1.00
2023-11-25T14:05:51.947Z,0.70
2023-11-25T14:08:20.890Z,1.00
2023-11-25T14:10:47.633Z,1.30
2023-11-25T14:13:15.195Z,0.70
2023-11-25T14:15:42.366Z,1.15
2023-11-25T14:18:09.754Z,0.52
2023-11-25T14:20:37.184Z,1.75
2023-11-25T14:23:06.097Z,0.80
2023-11-25T14:28:00.193Z,0.85
2023-11-25T14:30:30.008Z,1.40
2023-11-25T14:32:56.814Z,0.55
2023-11-25T14:35:24.161Z,1.05
2023-11-25T14:37:54.648Z,1.25
2023-11-25T14:40:24.965Z,0.50
2023-11-25T14:42:51.879Z,0.70
2023-11-25T14:45:18.616Z,0.85
2023-11-25T14:47:46.360Z,0.50
2023-11-25T14:50:14.056Z,0.60
2023-11-25T14:52:41.671Z,0.77
2023-11-25T14:55:12.805Z,0.70
2023-11-25T14:57:40.058Z,0.85
2023-11-25T15:00:09.736Z,1.00
2023-11-25T15:02:37.185Z,0.80
2023-11-25T15:05:04.984Z,0.88
2023-11-25T15:07:31.681Z,0.82
2023-11-25T15:09:58.766Z,1.40
2023-11-25T15:12:25.397Z,1.10
2023-11-25T15:14:55.299Z,1.23
2023-11-25T15:17:23.694Z,1.13
2023-11-25T15:19:50.253Z,1.30
2023-11-25T15:22:17.009Z,0.73
2023-11-25T15:24:43.645Z,0.55
2023-11-25T15:27:10.293Z,1.30
2023-11-25T15:29:37.077Z,1.10
2023-11-25T15:32:03.977Z,1.20
2023-11-25T15:34:30.584Z,1.23
2023-11-25T15:36:57.175Z,1.23
2023-11-25T15:39:28.088Z,1.70
2023-11-25T15:41:55.205Z,1.30
2023-11-25T15:44:21.794Z,1.27
2023-11-25T15:46:49.230Z,1.95
2023-11-25T15:49:17.020Z,1.40
2023-11-25T15:51:45.078Z,1.40
2023-11-25T15:54:12.095Z,1.67
2023-11-25T15:56:39.259Z,1.38
2023-11-25T15:59:07.540Z,0.98
2023-11-25T16:01:34.603Z,1.67
2023-11-25T16:04:01.825Z,1.73
2023-11-25T16:06:28.461Z,1.40
2023-11-25T16:08:54.989Z,0.82
2023-11-25T16:11:21.797Z,1.33
2023-11-25T16:13:48.446Z,1.13
2023-11-25T16:16:15.056Z,1.33
2023-11-25T16:18:41.641Z,1.40
2023-11-25T16:21:08.436Z,1.20
2023-11-25T16:23:38.906Z,1.17
2023-11-25T16:26:07.198Z,1.20
2023-11-25T16:28:34.631Z,0.80
2023-11-25T16:31:03.175Z,0.82
2023-11-25T16:33:31.310Z,0.93
2023-11-25T16:36:01.353Z,1.27
2023-11-25T16:38:31.619Z,1.17
2023-11-25T16:40:58.355Z,1.02
2023-11-25T16:43:26.487Z,1.25
2023-11-25T16:45:53.641Z,1.10
2023-11-25T16:48:23.647Z,0.85
2023-11-25T16:50:53.936Z,0.70
2023-11-25T16:53:20.670Z,1.20
2023-11-25T16:55:47.456Z,1.50
2023-11-25T16:58:14.151Z,4.93
2023-11-25T17:00:40.733Z,6.70
2023-11-25T17:03:07.828Z,1.58
2023-11-25T17:05:34.891Z,1.92
2023-11-25T17:08:01.570Z,2.20
2023-11-25T17:10:31.763Z,1.67
2023-11-25T17:13:02.624Z,2.15
2023-11-25T17:15:29.480Z,2.10
2023-11-25T17:17:56.254Z,2.10
2023-11-25T17:20:22.946Z,1.63
2023-11-25T17:22:50.360Z,2.00
2023-11-25T17:25:18.347Z,2.10
2023-11-25T17:27:44.948Z,1.63
2023-11-25T17:30:11.826Z,1.27
2023-11-25T17:32:38.420Z,1.30
2023-11-25T17:35:06.392Z,1.30
2023-11-25T17:37:33.170Z,1.63
2023-11-25T17:40:00.238Z,1.55
2023-11-25T17:42:26.896Z,1.73
2023-11-25T17:44:53.454Z,1.50
2023-11-25T17:47:21.005Z,1.13
2023-11-25T17:49:47.659Z,1.23
2023-11-25T17:52:14.952Z,1.15
2023-11-25T17:54:41.572Z,1.80
2023-11-25T17:57:09.829Z,1.38
2023-11-25T17:59:36.588Z,1.00
2023-11-25T18:02:03.440Z,1.50
2023-11-25T18:04:30.084Z,1.40
2023-11-25T18:06:56.704Z,1.13
2023-11-25T18:09:25.134Z,1.45
2023-11-25T18:11:51.730Z,1.60
2023-11-25T18:14:18.590Z,1.42
2023-11-25T18:16:46.470Z,1.77
2023-11-25T18:19:15.227Z,1.40
2023-11-25T18:21:42.648Z,1.08
2023-11-25T18:24:10.885Z,1.52
2023-11-25T18:26:37.668Z,1.48
2023-11-25T18:29:04.342Z,1.85
2023-11-25T18:31:30.914Z,1.90
2023-11-25T18:33:58.230Z,1.75
2023-11-25T18:36:25.030Z,1.92
2023-11-25T18:38:51.687Z,1.40
2023-11-25T18:41:18.482Z,1.63
2023-11-25T18:43:45.645Z,1.45
2023-11-25T18:46:12.664Z,1.40
2023-11-25T18:48:39.734Z,1.77
2023-11-25T18:51:07.311Z,2.15
2023-11-25T18:53:35.926Z,1.65
2023-11-25T18:56:02.881Z,1.90
2023-11-25T18:58:32.822Z,1.85
2023-11-25T19:01:00.084Z,1.75
2023-11-25T19:03:26.920Z,1.90
2023-11-25T19:05:53.931Z,1.85
2023-11-25T19:08:21.423Z,2.20
2023-11-25T19:10:49.667Z,1.73
2023-11-25T19:13:16.902Z,1.85
2023-11-25T19:15:43.943Z,1.48
2023-11-25T19:18:12.113Z,1.92
2023-11-25T19:20:39.453Z,1.70
2023-11-25T19:23:06.727Z,1.70
2023-11-25T19:25:37.505Z,2.42
2023-11-25T19:28:04.581Z,2.05
2023-11-25T19:30:31.544Z,1.52
2023-11-25T19:32:59.117Z,2.22
2023-11-25T19:35:27.284Z,1.70
2023-11-25T19:37:55.055Z,2.20
2023-11-25T19:40:22.537Z,1.92
2023-11-25T19:42:49.323Z,1.95
2023-11-25T19:45:15.979Z,1.63
2023-11-25T19:47:42.892Z,2.10
2023-11-25T19:50:10.741Z,1.70
2023-11-25T19:52:39.379Z,1.63
2023-11-25T19:55:07.688Z,1.70
2023-11-25T19:57:34.945Z,2.55
2023-11-25T20:00:03.572Z,1.90
2023-11-25T20:02:30.449Z,2.30
2023-11-25T20:04:57.655Z,2.30
2023-11-25T20:07:24.357Z,1.90
2023-11-25T20:09:51.021Z,1.83
2023-11-25T20:12:17.687Z,1.95
2023-11-25T20:14:44.427Z,1.70
2023-11-25T20:17:11.358Z,1.80
2023-11-25T20:19:38.536Z,1.77
2023-11-25T20:22:07.478Z,1.67
2023-11-25T20:24:34.253Z,2.75
2023-11-25T20:27:01.355Z,2.42
2023-11-25T20:29:28.025Z,2.10
2023-11-25T20:31:55.982Z,2.30
2023-11-25T20:34:25.011Z,1.80
2023-11-25T20:36:52.128Z,1.77
2023-11-25T20:39:19.190Z,1.60
2023-11-25T20:41:47.117Z,1.90
2023-11-25T20:44:15.924Z,1.65
2023-11-25T20:46:42.599Z,1.80
2023-11-25T20:49:09.256Z,2.25
2023-11-25T20:51:36.283Z,2.05
2023-11-25T20:54:03.414Z,1.95
2023-11-25T20:56:29.986Z,1.92
2023-11-25T20:58:57.327Z,2.55
2023-11-25T21:01:23.909Z,2.45
2023-11-25T21:03:50.741Z,2.28
2023-11-25T21:06:17.843Z,2.67
2023-11-25T21:08:45.055Z,2.10
2023-11-25T21:11:11.789Z,2.33
2023-11-25T21:13:38.698Z,2.35
2023-11-25T21:16:06.093Z,2.10
2023-11-25T21:18:33.889Z,1.73
2023-11-25T21:21:00.422Z,2.42
2023-11-25T21:23:26.980Z,2.08
2023-11-25T21:25:53.556Z,1.98
2023-11-25T21:28:20.268Z,2.10
2023-11-25T21:30:49.137Z,2.10
2023-11-25T21:33:15.745Z,2.08
2023-11-25T21:35:43.077Z,1.67
2023-11-25T21:38:09.789Z,2.20
2023-11-25T21:40:36.428Z,2.53
2023-11-25T21:43:04.468Z,1.90
2023-11-25T21:45:31.384Z,1.95
2023-11-25T21:47:58.029Z,1.80
2023-11-25T21:50:25.238Z,1.70
2023-11-25T21:52:52.032Z,2.00
2023-11-25T21:55:18.680Z,1.50
2023-11-25T21:57:45.193Z,1.90
2023-11-25T22:00:15.601Z,2.05
2023-11-25T22:02:42.685Z,1.73
2023-11-25T22:05:11.375Z,1.70
2023-11-25T22:07:38.825Z,1.92
2023-11-25T22:10:15.786Z,1.20
2023-11-25T22:12:48.507Z,1.80
2023-11-25T22:15:15.131Z,2.22
2023-11-25T22:17:41.654Z,1.35
2023-11-25T22:20:09.397Z,1.40
2023-11-25T22:22:36.003Z,1.48
2023-11-25T22:25:04.273Z,1.70
2023-11-25T22:27:32.661Z,1.60
2023-11-25T22:30:00.264Z,1.52
2023-11-25T22:32:27.265Z,1.80
2023-11-25T22:34:54.065Z,1.55
2023-11-25T22:37:20.707Z,1.67
2023-11-25T22:39:48.823Z,1.60
2023-11-25T22:42:15.733Z,2.00
2023-11-25T22:44:42.245Z,2.50
2023-11-25T22:47:08.852Z,1.77
2023-11-25T22:49:35.424Z,2.10
2023-11-25T22:52:01.956Z,2.17
2023-11-25T22:54:29.120Z,1.45
2023-11-25T22:56:58.261Z,1.92
2023-11-25T22:59:24.912Z,1.60
2023-11-25T23:01:54.905Z,1.70
2023-11-25T23:04:21.518Z,2.15
2023-11-25T23:06:49.507Z,1.95
2023-11-25T23:09:16.106Z,1.60
2023-11-25T23:11:42.629Z,2.00
2023-11-25T23:14:09.285Z,2.03
2023-11-25T23:16:35.899Z,2.20
2023-11-25T23:19:02.419Z,1.95
2023-11-25T23:21:29.153Z,1.90
2023-11-25T23:23:55.781Z,2.40
2023-11-25T23:26:22.450Z,2.03
2023-11-25T23:28:49.693Z,2.13
2023-11-25T23:31:16.370Z,2.50
2023-11-25T23:33:42.931Z,2.25
2023-11-25T23:36:10.610Z,2.10
2023-11-25T23:38:37.226Z,2.20
2023-11-25T23:41:03.986Z,1.95
2023-11-25T23:43:31.364Z,2.00
2023-11-25T23:45:58.043Z,2.05
2023-11-25T23:48:24.828Z,1.52
2023-11-25T23:50:51.794Z,1.65
2023-11-25T23:53:18.368Z,1.75
2023-11-25T23:55:44.989Z,1.80
2023-11-25T23:58:11.649Z,1.70
